sensor_id;sensor_type;location;lat;lon;timestamp;pressure;altitude;pressure_sealevel;temperature;humidity
74336;BME280;62755;-33.398;-70.572;2024-03-02T00:01:55;93111.00;;;28.24;38.00
74336;BME280;62755;-33.398;-70.572;2024-03-02T00:04:27;93109.47;;;28.10;38.16
74336;BME280;62755;-33.398;-70.572;2024-03-02T00:06:57;93109.69;;;28.12;37.88
74336;BME280;62755;-33.398;-70.572;2024-03-02T00:09:27;93119.38;;;28.00;38.15
74336;BME280;62755;-33.398;-70.572;2024-03-02T00:11:56;93118.00;;;27.88;38.50
74336;BME280;62755;-33.398;-70.572;2024-03-02T00:14:29;93111.97;;;27.70;38.55
74336;BME280;62755;-33.398;-70.572;2024-03-02T00:16:59;93126.72;;;27.92;38.39
74336;BME280;62755;-33.398;-70.572;2024-03-02T00:19:31;93113.16;;;27.94;38.46
74336;BME280;62755;-33.398;-70.572;2024-03-02T00:22:01;93117.84;;;27.80;38.66
74336;BME280;62755;-33.398;-70.572;2024-03-02T00:24:34;93125.81;;;27.83;38.18
74336;BME280;62755;-33.398;-70.572;2024-03-02T00:27:04;93121.69;;;27.71;38.11
74336;BME280;62755;-33.398;-70.572;2024-03-02T00:29:35;93123.44;;;27.74;38.20
74336;BME280;62755;-33.398;-70.572;2024-03-02T00:32:12;93096.97;;;27.47;38.75
74336;BME280;62755;-33.398;-70.572;2024-03-02T00:34:46;93120.94;;;27.52;38.60
74336;BME280;62755;-33.398;-70.572;2024-03-02T00:37:15;93124.69;;;27.73;38.54
74336;BME280;62755;-33.398;-70.572;2024-03-02T00:39:49;93127.34;;;27.42;38.46
74336;BME280;62755;-33.398;-70.572;2024-03-02T00:42:19;93127.84;;;27.40;38.85
74336;BME280;62755;-33.398;-70.572;2024-03-02T00:44:49;93136.00;;;27.51;38.71
74336;BME280;62755;-33.398;-70.572;2024-03-02T00:47:18;93116.69;;;27.27;38.74
74336;BME280;62755;-33.398;-70.572;2024-03-02T00:49:50;93118.41;;;27.30;39.15
74336;BME280;62755;-33.398;-70.572;2024-03-02T00:52:19;93149.88;;;27.16;39.72
74336;BME280;62755;-33.398;-70.572;2024-03-02T00:54:49;93146.66;;;27.36;38.96
74336;BME280;62755;-33.398;-70.572;2024-03-02T00:57:19;93162.34;;;27.17;39.24
74336;BME280;62755;-33.398;-70.572;2024-03-02T00:59:50;93166.63;;;27.18;39.69
74336;BME280;62755;-33.398;-70.572;2024-03-02T01:02:19;93167.72;;;26.80;40.54
74336;BME280;62755;-33.398;-70.572;2024-03-02T01:04:51;93168.91;;;27.14;39.38
74336;BME280;62755;-33.398;-70.572;2024-03-02T01:07:21;93168.53;;;26.99;39.50
74336;BME280;62755;-33.398;-70.572;2024-03-02T01:09:50;93165.34;;;27.19;39.21
74336;BME280;62755;-33.398;-70.572;2024-03-02T01:12:20;93165.78;;;26.99;39.54
74336;BME280;62755;-33.398;-70.572;2024-03-02T01:14:50;93168.53;;;26.99;39.49
74336;BME280;62755;-33.398;-70.572;2024-03-02T01:17:20;93173.03;;;27.02;39.42
74336;BME280;62755;-33.398;-70.572;2024-03-02T01:19:51;93167.09;;;27.22;39.54
74336;BME280;62755;-33.398;-70.572;2024-03-02T01:22:21;93172.25;;;27.31;38.78
74336;BME280;62755;-33.398;-70.572;2024-03-02T01:24:52;93154.66;;;26.86;39.90
74336;BME280;62755;-33.398;-70.572;2024-03-02T01:27:22;93159.25;;;27.02;39.85
74336;BME280;62755;-33.398;-70.572;2024-03-02T01:29:51;93149.72;;;26.79;39.83
74336;BME280;62755;-33.398;-70.572;2024-03-02T01:32:21;93157.41;;;26.86;39.80
74336;BME280;62755;-33.398;-70.572;2024-03-02T01:34:52;93146.75;;;26.71;39.45
74336;BME280;62755;-33.398;-70.572;2024-03-02T01:37:22;93149.53;;;26.66;40.25
74336;BME280;62755;-33.398;-70.572;2024-03-02T01:39:52;93153.25;;;26.74;39.74
74336;BME280;62755;-33.398;-70.572;2024-03-02T01:42:21;93157.53;;;26.99;39.17
74336;BME280;62755;-33.398;-70.572;2024-03-02T01:44:51;93153.63;;;27.13;39.42
74336;BME280;62755;-33.398;-70.572;2024-03-02T01:47:21;93153.13;;;26.85;39.88
74336;BME280;62755;-33.398;-70.572;2024-03-02T01:49:52;93152.09;;;27.18;39.41
74336;BME280;62755;-33.398;-70.572;2024-03-02T01:52:22;93154.91;;;27.12;38.90
74336;BME280;62755;-33.398;-70.572;2024-03-02T01:54:51;93146.72;;;26.77;40.11
74336;BME280;62755;-33.398;-70.572;2024-03-02T01:57:21;93153.00;;;26.37;40.31
74336;BME280;62755;-33.398;-70.572;2024-03-02T01:59:51;93142.69;;;26.07;41.32
74336;BME280;62755;-33.398;-70.572;2024-03-02T02:02:20;93143.59;;;26.21;41.37
74336;BME280;62755;-33.398;-70.572;2024-03-02T02:04:52;93140.53;;;26.36;40.81
74336;BME280;62755;-33.398;-70.572;2024-03-02T02:07:21;93115.69;;;26.12;40.84
74336;BME280;62755;-33.398;-70.572;2024-03-02T02:09:51;93136.34;;;26.59;41.03
74336;BME280;62755;-33.398;-70.572;2024-03-02T02:12:20;93123.19;;;26.46;40.55
74336;BME280;62755;-33.398;-70.572;2024-03-02T02:14:50;93114.63;;;26.55;40.37
74336;BME280;62755;-33.398;-70.572;2024-03-02T02:17:20;93118.94;;;26.80;40.01
74336;BME280;62755;-33.398;-70.572;2024-03-02T02:19:51;93130.28;;;26.66;40.12
74336;BME280;62755;-33.398;-70.572;2024-03-02T02:22:23;93121.25;;;26.71;40.31
74336;BME280;62755;-33.398;-70.572;2024-03-02T02:24:52;93135.88;;;26.55;40.31
74336;BME280;62755;-33.398;-70.572;2024-03-02T02:27:22;93132.50;;;26.67;40.50
74336;BME280;62755;-33.398;-70.572;2024-03-02T02:29:52;93136.72;;;26.74;39.90
74336;BME280;62755;-33.398;-70.572;2024-03-02T02:32:22;93130.41;;;26.84;39.63
74336;BME280;62755;-33.398;-70.572;2024-03-02T02:34:53;93136.19;;;26.81;40.57
74336;BME280;62755;-33.398;-70.572;2024-03-02T02:37:25;93138.75;;;26.68;40.77
74336;BME280;62755;-33.398;-70.572;2024-03-02T02:39:54;93128.25;;;26.72;40.43
74336;BME280;62755;-33.398;-70.572;2024-03-02T02:42:24;93132.06;;;26.93;40.42
74336;BME280;62755;-33.398;-70.572;2024-03-02T02:44:53;93135.97;;;27.03;40.26
74336;BME280;62755;-33.398;-70.572;2024-03-02T02:47:23;93116.63;;;26.55;40.28
74336;BME280;62755;-33.398;-70.572;2024-03-02T02:49:53;93133.88;;;26.50;40.71
74336;BME280;62755;-33.398;-70.572;2024-03-02T02:52:24;93150.94;;;26.07;41.86
74336;BME280;62755;-33.398;-70.572;2024-03-02T02:54:54;93137.34;;;25.74;42.79
74336;BME280;62755;-33.398;-70.572;2024-03-02T02:57:24;93140.91;;;25.58;43.29
74336;BME280;62755;-33.398;-70.572;2024-03-02T02:59:54;93146.47;;;25.47;42.86
74336;BME280;62755;-33.398;-70.572;2024-03-02T03:02:23;93136.22;;;25.37;43.12
74336;BME280;62755;-33.398;-70.572;2024-03-02T03:04:53;93139.72;;;25.26;42.63
74336;BME280;62755;-33.398;-70.572;2024-03-02T03:07:26;93134.25;;;25.32;43.01
74336;BME280;62755;-33.398;-70.572;2024-03-02T03:09:55;93129.72;;;25.45;42.15
74336;BME280;62755;-33.398;-70.572;2024-03-02T03:12:25;93131.22;;;25.35;42.43
74336;BME280;62755;-33.398;-70.572;2024-03-02T03:14:55;93132.22;;;25.38;42.15
74336;BME280;62755;-33.398;-70.572;2024-03-02T03:17:25;93124.19;;;25.56;41.98
74336;BME280;62755;-33.398;-70.572;2024-03-02T03:19:55;93120.03;;;25.85;41.30
74336;BME280;62755;-33.398;-70.572;2024-03-02T03:22:26;93124.56;;;26.29;41.15
74336;BME280;62755;-33.398;-70.572;2024-03-02T03:24:56;93116.38;;;26.53;40.86
74336;BME280;62755;-33.398;-70.572;2024-03-02T03:27:26;93116.44;;;26.42;40.72
74336;BME280;62755;-33.398;-70.572;2024-03-02T03:29:56;93107.25;;;26.39;40.54
74336;BME280;62755;-33.398;-70.572;2024-03-02T03:32:25;93112.09;;;26.57;40.02
74336;BME280;62755;-33.398;-70.572;2024-03-02T03:34:55;93111.53;;;26.64;40.52
74336;BME280;62755;-33.398;-70.572;2024-03-02T03:37:27;93106.84;;;26.54;40.12
74336;BME280;62755;-33.398;-70.572;2024-03-02T03:39:59;93107.66;;;26.49;40.55
74336;BME280;62755;-33.398;-70.572;2024-03-02T03:42:30;93106.06;;;26.29;40.86
74336;BME280;62755;-33.398;-70.572;2024-03-02T03:44:59;93103.56;;;25.90;41.53
74336;BME280;62755;-33.398;-70.572;2024-03-02T03:47:29;93102.06;;;25.84;41.14
74336;BME280;62755;-33.398;-70.572;2024-03-02T03:50:00;93098.94;;;26.09;40.98
74336;BME280;62755;-33.398;-70.572;2024-03-02T03:52:33;93100.72;;;26.01;41.24
74336;BME280;62755;-33.398;-70.572;2024-03-02T03:55:04;93102.47;;;25.99;41.33
74336;BME280;62755;-33.398;-70.572;2024-03-02T03:57:34;93101.44;;;25.61;42.13
74336;BME280;62755;-33.398;-70.572;2024-03-02T04:00:04;93097.22;;;25.60;42.11
74336;BME280;62755;-33.398;-70.572;2024-03-02T04:02:34;93105.44;;;25.60;42.29
74336;BME280;62755;-33.398;-70.572;2024-03-02T04:05:04;93103.53;;;25.33;42.81
74336;BME280;62755;-33.398;-70.572;2024-03-02T04:07:38;93092.06;;;25.29;42.58
74336;BME280;62755;-33.398;-70.572;2024-03-02T04:10:10;93087.63;;;25.15;43.10
74336;BME280;62755;-33.398;-70.572;2024-03-02T04:12:40;93094.09;;;25.12;42.66
74336;BME280;62755;-33.398;-70.572;2024-03-02T04:15:09;93081.13;;;25.18;42.89
74336;BME280;62755;-33.398;-70.572;2024-03-02T04:17:39;93089.03;;;25.38;42.35
74336;BME280;62755;-33.398;-70.572;2024-03-02T04:20:09;93088.53;;;25.45;42.15
74336;BME280;62755;-33.398;-70.572;2024-03-02T04:22:41;93091.53;;;25.36;42.53
74336;BME280;62755;-33.398;-70.572;2024-03-02T04:25:11;93084.47;;;25.57;41.73
74336;BME280;62755;-33.398;-70.572;2024-03-02T04:27:40;93081.09;;;25.86;41.38
74336;BME280;62755;-33.398;-70.572;2024-03-02T04:30:11;93086.03;;;25.93;41.23
74336;BME280;62755;-33.398;-70.572;2024-03-02T04:32:40;93078.38;;;25.75;41.85
74336;BME280;62755;-33.398;-70.572;2024-03-02T04:35:13;93072.66;;;25.73;42.21
74336;BME280;62755;-33.398;-70.572;2024-03-02T04:37:44;93070.25;;;25.99;41.59
74336;BME280;62755;-33.398;-70.572;2024-03-02T04:40:14;93072.00;;;25.56;42.59
74336;BME280;62755;-33.398;-70.572;2024-03-02T04:42:44;93069.38;;;25.80;41.64
74336;BME280;62755;-33.398;-70.572;2024-03-02T04:45:13;93071.34;;;25.85;42.12
74336;BME280;62755;-33.398;-70.572;2024-03-02T04:47:43;93064.00;;;25.99;41.74
74336;BME280;62755;-33.398;-70.572;2024-03-02T04:50:13;93074.00;;;26.02;41.74
74336;BME280;62755;-33.398;-70.572;2024-03-02T04:52:44;93080.47;;;26.10;41.58
74336;BME280;62755;-33.398;-70.572;2024-03-02T04:55:14;93078.81;;;25.90;41.45
74336;BME280;62755;-33.398;-70.572;2024-03-02T04:58:02;93072.47;;;26.01;41.52
74336;BME280;62755;-33.398;-70.572;2024-03-02T05:00:32;93061.03;;;25.97;41.56
74336;BME280;62755;-33.398;-70.572;2024-03-02T05:03:02;93071.25;;;25.96;41.50
74336;BME280;62755;-33.398;-70.572;2024-03-02T05:05:31;93070.97;;;25.59;41.40
74336;BME280;62755;-33.398;-70.572;2024-03-02T05:08:04;93079.34;;;25.32;42.33
74336;BME280;62755;-33.398;-70.572;2024-03-02T05:10:34;93080.47;;;24.90;44.07
74336;BME280;62755;-33.398;-70.572;2024-03-02T05:13:04;93077.69;;;25.01;44.13
74336;BME280;62755;-33.398;-70.572;2024-03-02T05:15:33;93072.94;;;25.01;44.38
74336;BME280;62755;-33.398;-70.572;2024-03-02T05:18:03;93069.19;;;25.10;44.10
74336;BME280;62755;-33.398;-70.572;2024-03-02T05:20:32;93067.53;;;24.63;45.09
74336;BME280;62755;-33.398;-70.572;2024-03-02T05:23:04;93065.97;;;25.06;44.09
74336;BME280;62755;-33.398;-70.572;2024-03-02T05:25:34;93072.38;;;25.25;43.79
74336;BME280;62755;-33.398;-70.572;2024-03-02T05:28:04;93068.06;;;25.46;43.55
74336;BME280;62755;-33.398;-70.572;2024-03-02T05:30:33;93063.03;;;25.50;43.45
74336;BME280;62755;-33.398;-70.572;2024-03-02T05:33:03;93063.53;;;25.54;43.87
74336;BME280;62755;-33.398;-70.572;2024-03-02T05:35:33;93068.53;;;25.50;43.84
74336;BME280;62755;-33.398;-70.572;2024-03-02T05:38:05;93063.59;;;25.43;43.63
74336;BME280;62755;-33.398;-70.572;2024-03-02T05:40:34;93069.50;;;25.58;43.21
74336;BME280;62755;-33.398;-70.572;2024-03-02T05:43:04;93060.75;;;25.60;43.11
74336;BME280;62755;-33.398;-70.572;2024-03-02T05:45:34;93068.53;;;25.50;43.72
74336;BME280;62755;-33.398;-70.572;2024-03-02T05:48:04;93069.34;;;25.28;44.16
74336;BME280;62755;-33.398;-70.572;2024-03-02T05:50:34;93068.84;;;25.30;43.79
74336;BME280;62755;-33.398;-70.572;2024-03-02T05:53:06;93060.09;;;25.37;43.90
74336;BME280;62755;-33.398;-70.572;2024-03-02T05:55:35;93052.84;;;25.45;43.17
74336;BME280;62755;-33.398;-70.572;2024-03-02T05:58:05;93055.34;;;25.32;43.06
74336;BME280;62755;-33.398;-70.572;2024-03-02T06:00:49;93054.69;;;25.15;43.28
74336;BME280;62755;-33.398;-70.572;2024-03-02T06:03:19;93056.03;;;24.70;44.85
74336;BME280;62755;-33.398;-70.572;2024-03-02T06:05:49;93057.53;;;24.60;44.86
74336;BME280;62755;-33.398;-70.572;2024-03-02T06:08:20;93055.53;;;24.77;44.66
74336;BME280;62755;-33.398;-70.572;2024-03-02T06:10:50;93046.31;;;24.69;44.55
74336;BME280;62755;-33.398;-70.572;2024-03-02T06:13:19;93045.34;;;24.61;45.18
74336;BME280;62755;-33.398;-70.572;2024-03-02T06:15:49;93040.09;;;24.57;44.64
74336;BME280;62755;-33.398;-70.572;2024-03-02T06:18:19;93044.81;;;24.68;44.33
74336;BME280;62755;-33.398;-70.572;2024-03-02T06:20:48;93044.84;;;24.46;44.84
74336;BME280;62755;-33.398;-70.572;2024-03-02T06:23:20;93045.34;;;24.50;45.19
74336;BME280;62755;-33.398;-70.572;2024-03-02T06:25:49;93046.81;;;24.62;44.80
74336;BME280;62755;-33.398;-70.572;2024-03-02T06:28:19;93042.84;;;24.63;45.21
74336;BME280;62755;-33.398;-70.572;2024-03-02T06:30:49;93038.59;;;24.73;45.09
74336;BME280;62755;-33.398;-70.572;2024-03-02T06:33:18;93040.31;;;24.87;44.93
74336;BME280;62755;-33.398;-70.572;2024-03-02T06:35:48;93047.75;;;25.03;44.69
74336;BME280;62755;-33.398;-70.572;2024-03-02T06:38:20;93047.66;;;25.25;44.10
74336;BME280;62755;-33.398;-70.572;2024-03-02T06:40:49;93045.84;;;24.76;44.58
74336;BME280;62755;-33.398;-70.572;2024-03-02T06:43:19;93046.81;;;24.73;44.62
74336;BME280;62755;-33.398;-70.572;2024-03-02T06:45:50;93042.09;;;24.62;45.04
74336;BME280;62755;-33.398;-70.572;2024-03-02T06:48:20;93019.66;;;24.47;44.82
74336;BME280;62755;-33.398;-70.572;2024-03-02T06:50:51;93032.84;;;24.71;44.72
74336;BME280;62755;-33.398;-70.572;2024-03-02T06:53:22;93028.41;;;24.46;44.89
74336;BME280;62755;-33.398;-70.572;2024-03-02T06:55:52;93038.56;;;24.89;44.06
74336;BME280;62755;-33.398;-70.572;2024-03-02T06:58:22;93041.03;;;24.93;44.30
74336;BME280;62755;-33.398;-70.572;2024-03-02T07:00:51;93040.53;;;24.89;44.46
74336;BME280;62755;-33.398;-70.572;2024-03-02T07:03:21;93036.47;;;25.12;44.57
74336;BME280;62755;-33.398;-70.572;2024-03-02T07:05:51;93043.78;;;24.93;44.59
74336;BME280;62755;-33.398;-70.572;2024-03-02T07:08:22;93054.50;;;24.96;44.50
74336;BME280;62755;-33.398;-70.572;2024-03-02T07:10:52;93048.53;;;24.98;44.23
74336;BME280;62755;-33.398;-70.572;2024-03-02T07:13:21;93052.28;;;24.84;44.83
74336;BME280;62755;-33.398;-70.572;2024-03-02T07:15:51;93042.78;;;24.96;44.13
74336;BME280;62755;-33.398;-70.572;2024-03-02T07:18:48;93036.59;;;24.73;44.63
74336;BME280;62755;-33.398;-70.572;2024-03-02T07:21:19;93035.13;;;24.56;45.33
74336;BME280;62755;-33.398;-70.572;2024-03-02T07:23:51;93023.41;;;24.50;44.61
74336;BME280;62755;-33.398;-70.572;2024-03-02T07:26:20;93035.09;;;24.61;44.06
74336;BME280;62755;-33.398;-70.572;2024-03-02T07:28:50;93034.38;;;24.61;43.84
74336;BME280;62755;-33.398;-70.572;2024-03-02T07:31:20;93043.34;;;24.56;43.60
74336;BME280;62755;-33.398;-70.572;2024-03-02T07:33:49;93041.63;;;24.41;44.31
74336;BME280;62755;-33.398;-70.572;2024-03-02T07:36:19;93039.13;;;24.38;44.32
74336;BME280;62755;-33.398;-70.572;2024-03-02T07:38:51;93047.38;;;24.21;44.34
74336;BME280;62755;-33.398;-70.572;2024-03-02T07:41:21;93007.47;;;23.98;44.29
74336;BME280;62755;-33.398;-70.572;2024-03-02T07:43:51;93043.63;;;24.24;44.68
74336;BME280;62755;-33.398;-70.572;2024-03-02T07:46:20;93051.84;;;24.02;45.05
74336;BME280;62755;-33.398;-70.572;2024-03-02T07:48:50;93038.88;;;23.97;44.73
74336;BME280;62755;-33.398;-70.572;2024-03-02T07:51:20;93044.84;;;24.01;44.66
74336;BME280;62755;-33.398;-70.572;2024-03-02T07:53:52;93040.88;;;24.02;45.07
74336;BME280;62755;-33.398;-70.572;2024-03-02T07:56:21;93033.91;;;24.12;44.58
74336;BME280;62755;-33.398;-70.572;2024-03-02T07:58:51;93034.69;;;24.07;44.57
74336;BME280;62755;-33.398;-70.572;2024-03-02T08:01:21;93043.63;;;24.24;44.91
74336;BME280;62755;-33.398;-70.572;2024-03-02T08:03:50;93032.19;;;24.09;44.68
74336;BME280;62755;-33.398;-70.572;2024-03-02T08:06:20;93022.72;;;24.27;44.88
74336;BME280;62755;-33.398;-70.572;2024-03-02T08:08:51;93033.41;;;24.30;44.98
74336;BME280;62755;-33.398;-70.572;2024-03-02T08:11:21;93021.44;;;24.33;44.83
74336;BME280;62755;-33.398;-70.572;2024-03-02T08:13:51;93023.19;;;24.25;44.62
74336;BME280;62755;-33.398;-70.572;2024-03-02T08:16:22;93027.94;;;24.08;45.18
74336;BME280;62755;-33.398;-70.572;2024-03-02T08:18:52;93025.97;;;24.03;44.86
74336;BME280;62755;-33.398;-70.572;2024-03-02T08:21:25;93037.41;;;24.07;45.24
74336;BME280;62755;-33.398;-70.572;2024-03-02T08:23:59;93040.16;;;24.18;45.18
74336;BME280;62755;-33.398;-70.572;2024-03-02T08:26:29;93042.63;;;24.16;45.11
74336;BME280;62755;-33.398;-70.572;2024-03-02T08:28:59;93040.38;;;24.20;45.23
74336;BME280;62755;-33.398;-70.572;2024-03-02T08:31:30;93046.63;;;24.21;45.42
74336;BME280;62755;-33.398;-70.572;2024-03-02T08:34:00;93053.84;;;24.18;45.17
74336;BME280;62755;-33.398;-70.572;2024-03-02T08:36:30;93056.84;;;24.09;45.15
74336;BME280;62755;-33.398;-70.572;2024-03-02T08:39:02;93049.13;;;24.24;44.80
74336;BME280;62755;-33.398;-70.572;2024-03-02T08:41:43;93055.84;;;24.23;44.79
74336;BME280;62755;-33.398;-70.572;2024-03-02T08:44:13;93059.31;;;24.29;44.95
74336;BME280;62755;-33.398;-70.572;2024-03-02T08:46:44;93057.31;;;24.30;45.13
74336;BME280;62755;-33.398;-70.572;2024-03-02T08:49:14;93058.59;;;24.29;45.25
74336;BME280;62755;-33.398;-70.572;2024-03-02T08:51:44;93061.50;;;23.87;45.29
74336;BME280;62755;-33.398;-70.572;2024-03-02T08:54:23;93067.75;;;23.98;45.51
74336;BME280;62755;-33.398;-70.572;2024-03-02T08:56:53;93066.81;;;24.23;45.16
74336;BME280;62755;-33.398;-70.572;2024-03-02T08:59:23;93059.09;;;24.05;45.45
74336;BME280;62755;-33.398;-70.572;2024-03-02T09:01:54;93072.75;;;24.27;44.43
74336;BME280;62755;-33.398;-70.572;2024-03-02T09:04:24;93080.00;;;24.03;44.84
74336;BME280;62755;-33.398;-70.572;2024-03-02T09:06:54;93073.97;;;23.88;44.74
74336;BME280;62755;-33.398;-70.572;2024-03-02T09:09:25;93073.19;;;23.65;45.06
74336;BME280;62755;-33.398;-70.572;2024-03-02T09:11:55;93079.41;;;23.77;45.14
74336;BME280;62755;-33.398;-70.572;2024-03-02T09:14:25;93074.94;;;23.68;44.98
74336;BME280;62755;-33.398;-70.572;2024-03-02T09:16:54;93081.69;;;23.78;45.08
74336;BME280;62755;-33.398;-70.572;2024-03-02T09:19:24;93077.69;;;23.85;45.24
74336;BME280;62755;-33.398;-70.572;2024-03-02T09:21:54;93083.16;;;23.79;45.35
74336;BME280;62755;-33.398;-70.572;2024-03-02T09:24:26;93088.41;;;23.77;45.48
74336;BME280;62755;-33.398;-70.572;2024-03-02T09:26:56;93082.91;;;23.72;45.37
74336;BME280;62755;-33.398;-70.572;2024-03-02T09:29:26;93087.13;;;23.67;45.70
74336;BME280;62755;-33.398;-70.572;2024-03-02T09:31:55;93098.84;;;23.84;45.30
74336;BME280;62755;-33.398;-70.572;2024-03-02T09:34:25;93097.38;;;23.89;45.24
74336;BME280;62755;-33.398;-70.572;2024-03-02T09:36:55;93094.13;;;23.79;44.92
74336;BME280;62755;-33.398;-70.572;2024-03-02T09:39:26;93112.78;;;23.70;45.48
74336;BME280;62755;-33.398;-70.572;2024-03-02T09:41:56;93119.25;;;23.72;45.81
74336;BME280;62755;-33.398;-70.572;2024-03-02T09:44:26;93122.69;;;23.56;46.47
74336;BME280;62755;-33.398;-70.572;2024-03-02T09:46:55;93130.94;;;23.67;46.17
74336;BME280;62755;-33.398;-70.572;2024-03-02T09:49:25;93126.50;;;23.86;45.95
74336;BME280;62755;-33.398;-70.572;2024-03-02T09:51:55;93125.00;;;23.85;45.68
74336;BME280;62755;-33.398;-70.572;2024-03-02T09:54:27;93136.91;;;23.71;45.49
74336;BME280;62755;-33.398;-70.572;2024-03-02T09:56:56;93134.59;;;23.47;46.49
74336;BME280;62755;-33.398;-70.572;2024-03-02T09:59:28;93138.63;;;23.10;46.41
74336;BME280;62755;-33.398;-70.572;2024-03-02T10:01:59;93141.72;;;23.28;46.23
74336;BME280;62755;-33.398;-70.572;2024-03-02T10:04:29;93140.84;;;23.48;45.73
74336;BME280;62755;-33.398;-70.572;2024-03-02T10:07:13;93147.06;;;23.48;45.63
74336;BME280;62755;-33.398;-70.572;2024-03-02T10:09:45;93157.25;;;23.48;45.80
74336;BME280;62755;-33.398;-70.572;2024-03-02T10:12:16;93159.22;;;23.42;46.68
74336;BME280;62755;-33.398;-70.572;2024-03-02T10:14:46;93166.13;;;23.32;46.15
74336;BME280;62755;-33.398;-70.572;2024-03-02T10:17:18;93163.97;;;23.05;46.75
74336;BME280;62755;-33.398;-70.572;2024-03-02T10:19:48;93173.53;;;23.26;46.46
74336;BME280;62755;-33.398;-70.572;2024-03-02T10:22:18;93168.31;;;23.28;46.57
74336;BME280;62755;-33.398;-70.572;2024-03-02T10:24:49;93170.91;;;23.00;47.23
74336;BME280;62755;-33.398;-70.572;2024-03-02T10:27:25;93157.31;;;23.11;46.84
74336;BME280;62755;-33.398;-70.572;2024-03-02T10:29:56;93170.00;;;23.20;46.72
74336;BME280;62755;-33.398;-70.572;2024-03-02T10:32:27;93165.72;;;23.08;46.95
74336;BME280;62755;-33.398;-70.572;2024-03-02T10:34:56;93162.97;;;23.08;46.83
74336;BME280;62755;-33.398;-70.572;2024-03-02T10:37:27;93173.13;;;23.33;46.27
74336;BME280;62755;-33.398;-70.572;2024-03-02T10:40:05;93172.31;;;23.27;46.42
74336;BME280;62755;-33.398;-70.572;2024-03-02T10:42:36;93174.81;;;23.30;46.03
74336;BME280;62755;-33.398;-70.572;2024-03-02T10:45:09;93169.56;;;23.27;46.10
74336;BME280;62755;-33.398;-70.572;2024-03-02T10:47:39;93181.75;;;23.26;46.61
74336;BME280;62755;-33.398;-70.572;2024-03-02T10:50:09;93183.81;;;23.00;46.47
74336;BME280;62755;-33.398;-70.572;2024-03-02T10:52:39;93191.66;;;23.18;46.71
74336;BME280;62755;-33.398;-70.572;2024-03-02T10:55:11;93188.47;;;23.25;46.60
74336;BME280;62755;-33.398;-70.572;2024-03-02T10:57:44;93193.59;;;23.12;47.09
74336;BME280;62755;-33.398;-70.572;2024-03-02T11:00:15;93186.38;;;23.09;46.86
74336;BME280;62755;-33.398;-70.572;2024-03-02T11:02:50;93195.81;;;23.08;47.16
74336;BME280;62755;-33.398;-70.572;2024-03-02T11:05:27;93193.34;;;23.10;46.90
74336;BME280;62755;-33.398;-70.572;2024-03-02T11:08:00;93198.22;;;23.31;46.05
74336;BME280;62755;-33.398;-70.572;2024-03-02T11:10:36;93197.38;;;23.20;46.43
74336;BME280;62755;-33.398;-70.572;2024-03-02T11:13:09;93164.72;;;23.05;46.22
74336;BME280;62755;-33.398;-70.572;2024-03-02T11:15:43;93196.28;;;23.01;46.63
74336;BME280;62755;-33.398;-70.572;2024-03-02T11:18:13;93199.91;;;22.87;47.16
74336;BME280;62755;-33.398;-70.572;2024-03-02T11:23:13;93193.00;;;22.97;46.69
74336;BME280;62755;-33.398;-70.572;2024-03-02T11:25:46;93191.81;;;23.03;46.70
74336;BME280;62755;-33.398;-70.572;2024-03-02T11:28:16;93204.75;;;23.03;46.37
74336;BME280;62755;-33.398;-70.572;2024-03-02T11:31:04;93207.50;;;22.72;47.01
74336;BME280;62755;-33.398;-70.572;2024-03-02T11:33:34;93220.97;;;22.81;46.98
74336;BME280;62755;-33.398;-70.572;2024-03-02T11:36:04;93210.22;;;23.03;46.52
74336;BME280;62755;-33.398;-70.572;2024-03-02T11:38:35;93206.75;;;23.08;46.38
74336;BME280;62755;-33.398;-70.572;2024-03-02T11:41:08;93218.09;;;22.90;47.05
74336;BME280;62755;-33.398;-70.572;2024-03-02T11:43:39;93217.63;;;22.97;46.83
74336;BME280;62755;-33.398;-70.572;2024-03-02T11:46:07;93223.56;;;22.90;47.21
74336;BME280;62755;-33.398;-70.572;2024-03-02T11:48:37;93225.16;;;22.76;47.43
74336;BME280;62755;-33.398;-70.572;2024-03-02T11:51:08;93224.09;;;22.94;46.44
74336;BME280;62755;-33.398;-70.572;2024-03-02T11:53:39;93228.31;;;22.95;46.40
74336;BME280;62755;-33.398;-70.572;2024-03-02T11:56:12;93236.94;;;23.19;47.08
74336;BME280;62755;-33.398;-70.572;2024-03-02T11:58:43;93233.22;;;23.22;47.51
74336;BME280;62755;-33.398;-70.572;2024-03-02T12:01:14;93233.50;;;23.29;47.90
74336;BME280;62755;-33.398;-70.572;2024-03-02T12:03:44;93233.94;;;23.59;47.04
74336;BME280;62755;-33.398;-70.572;2024-03-02T12:06:15;93239.53;;;23.81;46.46
74336;BME280;62755;-33.398;-70.572;2024-03-02T12:08:53;93243.53;;;23.80;45.71
74336;BME280;62755;-33.398;-70.572;2024-03-02T12:11:24;93246.41;;;23.60;47.19
74336;BME280;62755;-33.398;-70.572;2024-03-02T12:13:54;93235.97;;;23.64;46.74
74336;BME280;62755;-33.398;-70.572;2024-03-02T12:16:25;93243.34;;;23.47;47.37
74336;BME280;62755;-33.398;-70.572;2024-03-02T12:18:56;93246.88;;;23.22;48.50
74336;BME280;62755;-33.398;-70.572;2024-03-02T12:21:25;93252.56;;;23.13;48.80
74336;BME280;62755;-33.398;-70.572;2024-03-02T12:23:55;93250.00;;;23.04;48.83
74336;BME280;62755;-33.398;-70.572;2024-03-02T12:26:27;93247.53;;;23.06;48.50
74336;BME280;62755;-33.398;-70.572;2024-03-02T12:28:58;93230.22;;;23.20;48.03
74336;BME280;62755;-33.398;-70.572;2024-03-02T12:31:28;93240.69;;;23.64;46.93
74336;BME280;62755;-33.398;-70.572;2024-03-02T12:33:58;93236.44;;;23.57;47.03
74336;BME280;62755;-33.398;-70.572;2024-03-02T12:36:27;93235.56;;;23.34;47.52
74336;BME280;62755;-33.398;-70.572;2024-03-02T12:38:57;93237.53;;;23.34;47.46
74336;BME280;62755;-33.398;-70.572;2024-03-02T12:41:28;93242.13;;;23.48;47.09
74336;BME280;62755;-33.398;-70.572;2024-03-02T12:43:58;93241.97;;;23.68;46.94
74336;BME280;62755;-33.398;-70.572;2024-03-02T12:46:29;93241.38;;;23.53;46.89
74336;BME280;62755;-33.398;-70.572;2024-03-02T12:48:58;93242.28;;;23.39;47.38
74336;BME280;62755;-33.398;-70.572;2024-03-02T12:51:34;93236.59;;;23.37;47.47